sensor_id;sensor_type;location;lat;lon;timestamp;pressure;altitude;pressure_sealevel;temperature;humidity
78170;BME280;67412;49.892;14.490;2023-06-04T00:01:29;97512.66;;;7.19;68.99
78170;BME280;67412;49.892;14.490;2023-06-04T00:03:54;97514.31;;;7.03;69.77
78170;BME280;67412;49.892;14.490;2023-06-04T00:06:19;97508.41;;;7.19;69.12
78170;BME280;67412;49.892;14.490;2023-06-04T00:08:45;97508.38;;;7.24;69.41
78170;BME280;67412;49.892;14.490;2023-06-04T00:11:10;97508.38;;;7.24;68.97
78170;BME280;67412;49.892;14.490;2023-06-04T00:13:35;97510.13;;;7.43;68.67
78170;BME280;67412;49.892;14.490;2023-06-04T00:16:01;97507.56;;;7.37;68.42
78170;BME280;67412;49.892;14.490;2023-06-04T00:18:27;97508.38;;;7.24;69.25
78170;BME280;67412;49.892;14.490;2023-06-04T00:20:52;97499.88;;;7.22;69.98
78170;BME280;67412;49.892;14.490;2023-06-04T00:23:17;97504.13;;;7.21;69.66
78170;BME280;67412;49.892;14.490;2023-06-04T00:25:43;97500.75;;;7.27;69.45
78170;BME280;67412;49.892;14.490;2023-06-04T00:28:08;97500.75;;;7.44;68.61
78170;BME280;67412;49.892;14.490;2023-06-04T00:30:33;97503.34;;;7.60;68.21
78170;BME280;67412;49.892;14.490;2023-06-04T00:32:59;97498.22;;;7.54;68.35
78170;BME280;67412;49.892;14.490;2023-06-04T00:35:24;97499.06;;;7.65;67.90
78170;BME280;67412;49.892;14.490;2023-06-04T00:37:49;97494.81;;;7.64;67.82
78170;BME280;67412;49.892;14.490;2023-06-04T00:40:15;97492.25;;;7.75;67.32
78170;BME280;67412;49.892;14.490;2023-06-04T00:42:40;97495.66;;;7.51;67.89
78170;BME280;67412;49.892;14.490;2023-06-04T00:45:06;97491.41;;;7.38;68.70
78170;BME280;67412;49.892;14.490;2023-06-04T00:47:33;97493.06;;;7.24;69.15
78170;BME280;67412;49.892;14.490;2023-06-04T00:49:58;97489.63;;;7.01;69.56
78170;BME280;67412;49.892;14.490;2023-06-04T00:52:24;97496.38;;;6.77;70.57
78170;BME280;67412;49.892;14.490;2023-06-04T00:54:50;97491.19;;;6.59;71.35
78170;BME280;67412;49.892;14.490;2023-06-04T00:57:16;97490.31;;;6.54;71.58
78170;BME280;67412;49.892;14.490;2023-06-04T00:59:41;97482.59;;;6.39;72.04
78170;BME280;67412;49.892;14.490;2023-06-04T01:02:16;97485.09;;;6.28;72.61
78170;BME280;67412;49.892;14.490;2023-06-04T01:05:08;97487.56;;;6.15;73.05
78170;BME280;67412;49.892;14.490;2023-06-04T01:07:37;97478.25;;;6.23;73.18
78170;BME280;67412;49.892;14.490;2023-06-04T01:10:05;97470.66;;;6.38;72.57
78170;BME280;67412;49.892;14.490;2023-06-04T01:12:31;97473.31;;;6.52;72.14
78170;BME280;67412;49.892;14.490;2023-06-04T01:14:56;97476.72;;;6.52;71.82
78170;BME280;67412;49.892;14.490;2023-06-04T01:25:25;97474.03;;;6.31;72.54
78170;BME280;67412;49.892;14.490;2023-06-04T01:27:55;97470.59;;;6.23;72.73
78170;BME280;67412;49.892;14.490;2023-06-04T01:30:30;97477.41;;;6.24;72.78
78170;BME280;67412;49.892;14.490;2023-06-04T01:32:55;97476.56;;;6.23;72.62
78170;BME280;67412;49.892;14.490;2023-06-04T01:35:21;97479.03;;;6.10;73.20
78170;BME280;67412;49.892;14.490;2023-06-04T01:37:47;97473.88;;;6.01;73.99
78170;BME280;67412;49.892;14.490;2023-06-04T01:40:14;97473.88;;;6.04;73.76
78170;BME280;67412;49.892;14.490;2023-06-04T01:42:41;97470.56;;;6.11;74.21
78170;BME280;67412;49.892;14.490;2023-06-04T01:45:06;97468.94;;;6.28;73.60
78170;BME280;67412;49.892;14.490;2023-06-04T01:47:32;97466.41;;;6.29;73.33
78170;BME280;67412;49.892;14.490;2023-06-04T01:49:57;97462.13;;;6.27;73.28
78170;BME280;67412;49.892;14.490;2023-06-04T01:52:23;97461.31;;;6.42;72.92
78170;BME280;67412;49.892;14.490;2023-06-04T01:54:48;97470.78;;;6.59;72.37
78170;BME280;67412;49.892;14.490;2023-06-04T01:57:17;97464.88;;;6.71;72.06
78170;BME280;67412;49.892;14.490;2023-06-04T01:59:43;97464.03;;;6.78;71.21
78170;BME280;67412;49.892;14.490;2023-06-04T02:02:08;97463.16;;;6.73;71.24
78170;BME280;67412;49.892;14.490;2023-06-04T02:04:33;97462.25;;;6.60;71.33
78170;BME280;67412;49.892;14.490;2023-06-04T02:07:02;97472.44;;;6.54;71.39
78170;BME280;67412;49.892;14.490;2023-06-04T02:09:27;97470.78;;;6.59;71.40
78170;BME280;67412;49.892;14.490;2023-06-04T02:11:52;97470.72;;;6.44;71.72
78170;BME280;67412;49.892;14.490;2023-06-04T02:14:18;97468.09;;;6.30;72.20
78170;BME280;67412;49.892;14.490;2023-06-04T02:16:43;97471.44;;;6.17;73.79
78170;BME280;67412;49.892;14.490;2023-06-04T02:19:08;97462.09;;;6.18;73.69
78170;BME280;67412;49.892;14.490;2023-06-04T02:21:33;97477.34;;;6.10;72.92
78170;BME280;67412;49.892;14.490;2023-06-04T02:24:00;97479.88;;;6.06;73.58
78170;BME280;67412;49.892;14.490;2023-06-04T02:26:25;97477.34;;;6.12;72.85
78170;BME280;67412;49.892;14.490;2023-06-04T02:28:51;97480.72;;;6.08;73.04
78170;BME280;67412;49.892;14.490;2023-06-04T02:31:16;97479.84;;;6.00;72.89
78170;BME280;67412;49.892;14.490;2023-06-04T02:33:42;97487.41;;;5.88;73.91
78170;BME280;67412;49.892;14.490;2023-06-04T02:36:08;97484.03;;;5.92;73.70
78170;BME280;67412;49.892;14.490;2023-06-04T02:38:34;97482.31;;;5.88;75.17
78170;BME280;67412;49.892;14.490;2023-06-04T02:41:00;97489.88;;;5.83;73.98
78170;BME280;67412;49.892;14.490;2023-06-04T02:43:25;97480.50;;;5.82;73.63
78170;BME280;67412;49.892;14.490;2023-06-04T02:45:50;97488.09;;;5.71;74.07
78170;BME280;67412;49.892;14.490;2023-06-04T02:48:15;97488.16;;;5.80;74.84
78170;BME280;67412;49.892;14.490;2023-06-04T02:50:41;97491.59;;;5.85;73.84
78170;BME280;67412;49.892;14.490;2023-06-04T02:53:07;97489.03;;;5.82;73.44
78170;BME280;67412;49.892;14.490;2023-06-04T02:55:33;97487.19;;;5.63;73.07
78170;BME280;67412;49.892;14.490;2023-06-04T02:57:59;97494.75;;;5.53;72.58
78170;BME280;67412;49.892;14.490;2023-06-04T03:00:25;97495.41;;;5.33;73.14
78170;BME280;67412;49.892;14.490;2023-06-04T03:02:51;97498.78;;;5.28;73.58
78170;BME280;67412;49.892;14.490;2023-06-04T03:05:17;97495.38;;;5.27;75.16
78170;BME280;67412;49.892;14.490;2023-06-04T03:07:44;97499.66;;;5.33;75.48
78170;BME280;67412;49.892;14.490;2023-06-04T03:10:11;97504.66;;;5.22;74.87
78170;BME280;67412;49.892;14.490;2023-06-04T03:12:37;97506.69;;;5.58;76.34
78170;BME280;67412;49.892;14.490;2023-06-04T03:15:03;97510.91;;;5.55;75.12
78170;BME280;67412;49.892;14.490;2023-06-04T03:17:30;97500.69;;;5.50;75.33
78170;BME280;67412;49.892;14.490;2023-06-04T03:19:56;97513.53;;;5.67;75.96
78170;BME280;67412;49.892;14.490;2023-06-04T03:22:22;97522.19;;;5.85;75.76
78170;BME280;67412;49.892;14.490;2023-06-04T03:24:47;97511.28;;;5.99;74.77
78170;BME280;67412;49.892;14.490;2023-06-04T03:27:13;97516.41;;;6.05;74.91
78170;BME280;67412;49.892;14.490;2023-06-04T03:29:38;97521.59;;;6.23;76.33
78170;BME280;67412;49.892;14.490;2023-06-04T03:32:04;97519.16;;;6.37;75.15
78170;BME280;67412;49.892;14.490;2023-06-04T03:34:29;97515.88;;;6.65;74.84
78170;BME280;67412;49.892;14.490;2023-06-04T03:36:58;97521.91;;;6.74;74.95
78170;BME280;67412;49.892;14.490;2023-06-04T03:39:23;97517.63;;;6.73;74.33
78170;BME280;67412;49.892;14.490;2023-06-04T03:41:49;97511.72;;;6.82;74.24
78170;BME280;67412;49.892;14.490;2023-06-04T03:44:17;97512.59;;;6.96;74.07
78170;BME280;67412;49.892;14.490;2023-06-04T03:46:44;97516.91;;;7.20;73.53
78170;BME280;67412;49.892;14.490;2023-06-04T03:49:10;97510.06;;;7.10;73.44
78170;BME280;67412;49.892;14.490;2023-06-04T03:51:36;97516.03;;;7.16;73.11
78170;BME280;67412;49.892;14.490;2023-06-04T03:54:02;97513.53;;;7.30;74.10
78170;BME280;67412;49.892;14.490;2023-06-04T03:56:28;97513.53;;;7.41;73.65
78170;BME280;67412;49.892;14.490;2023-06-04T03:58:53;97517.81;;;7.55;74.64
78170;BME280;67412;49.892;14.490;2023-06-04T04:01:18;97521.22;;;7.80;73.72
78170;BME280;67412;49.892;14.490;2023-06-04T04:03:44;97522.06;;;7.96;71.99
78170;BME280;67412;49.892;14.490;2023-06-04T04:06:13;97519.53;;;8.05;71.13
78170;BME280;67412;49.892;14.490;2023-06-04T04:08:39;97526.31;;;8.15;71.00
78170;BME280;67412;49.892;14.490;2023-06-04T04:11:07;97527.19;;;8.29;71.17
78170;BME280;67412;49.892;14.490;2023-06-04T04:13:33;97521.16;;;8.44;73.92
78170;BME280;67412;49.892;14.490;2023-06-04T04:15:58;97517.66;;;8.77;71.59
78170;BME280;67412;49.892;14.490;2023-06-04T04:18:23;97519.19;;;9.14;70.71
78170;BME280;67412;49.892;14.490;2023-06-04T04:20:48;97517.38;;;9.33;69.18
78170;BME280;67412;49.892;14.490;2023-06-04T04:23:14;97521.50;;;9.53;67.64
78170;BME280;67412;49.892;14.490;2023-06-04T04:25:39;97525.63;;;9.73;66.73
78170;BME280;67412;49.892;14.490;2023-06-04T04:28:06;97524.66;;;9.87;66.23
78170;BME280;67412;49.892;14.490;2023-06-04T04:30:35;97529.63;;;10.07;65.34
78170;BME280;67412;49.892;14.490;2023-06-04T04:33:01;97530.38;;;10.23;64.54
78170;BME280;67412;49.892;14.490;2023-06-04T04:35:27;97520.81;;;10.35;64.82
78170;BME280;67412;49.892;14.490;2023-06-04T04:37:54;97524.03;;;10.57;61.80
78170;BME280;67412;49.892;14.490;2023-06-04T04:40:19;97525.72;;;10.59;61.34
78170;BME280;67412;49.892;14.490;2023-06-04T04:42:45;97515.47;;;10.56;61.85
78170;BME280;67412;49.892;14.490;2023-06-04T04:45:10;97524.13;;;10.49;62.22
78170;BME280;67412;49.892;14.490;2023-06-04T04:47:36;97520.69;;;10.49;62.19
78170;BME280;67412;49.892;14.490;2023-06-04T04:50:02;97523.31;;;10.46;62.37
78170;BME280;67412;49.892;14.490;2023-06-04T04:52:27;97515.53;;;10.53;61.46
78170;BME280;67412;49.892;14.490;2023-06-04T04:54:52;97517.16;;;10.57;61.25
78170;BME280;67412;49.892;14.490;2023-06-04T04:57:23;97516.22;;;10.68;61.55
78170;BME280;67412;49.892;14.490;2023-06-04T04:59:48;97522.84;;;10.84;61.40
78170;BME280;67412;49.892;14.490;2023-06-04T05:02:14;97515.00;;;10.96;61.10
78170;BME280;67412;49.892;14.490;2023-06-04T05:04:40;97523.41;;;11.08;61.65
78170;BME280;67412;49.892;14.490;2023-06-04T05:07:05;97525.13;;;11.08;61.45
78170;BME280;67412;49.892;14.490;2023-06-04T05:09:30;97527.50;;;11.22;60.35
78170;BME280;67412;49.892;14.490;2023-06-04T05:11:56;97529.94;;;11.32;60.28
78170;BME280;67412;49.892;14.490;2023-06-04T05:14:21;97535.06;;;11.34;60.00
78170;BME280;67412;49.892;14.490;2023-06-04T05:16:46;97523.75;;;11.45;59.75
78170;BME280;67412;49.892;14.490;2023-06-04T05:19:15;97528.00;;;11.49;59.80
78170;BME280;67412;49.892;14.490;2023-06-04T05:21:41;97532.00;;;11.69;60.17
78170;BME280;67412;49.892;14.490;2023-06-04T05:24:07;97533.63;;;11.74;58.70
78170;BME280;67412;49.892;14.490;2023-06-04T05:26:32;97531.84;;;11.81;57.93
78170;BME280;67412;49.892;14.490;2023-06-04T05:28:58;97534.31;;;11.87;58.76
78170;BME280;67412;49.892;14.490;2023-06-04T05:31:24;97545.16;;;12.05;58.76
78170;BME280;67412;49.892;14.490;2023-06-04T05:33:51;97538.84;;;12.25;58.53
78170;BME280;67412;49.892;14.490;2023-06-04T05:36:17;97540.22;;;12.42;56.64
78170;BME280;67412;49.892;14.490;2023-06-04T05:38:43;97529.78;;;12.48;57.75
78170;BME280;67412;49.892;14.490;2023-06-04T05:41:08;97537.34;;;12.59;62.14
78170;BME280;67412;49.892;14.490;2023-06-04T05:43:33;97543.16;;;12.70;60.72
78170;BME280;67412;49.892;14.490;2023-06-04T05:45:59;97537.72;;;12.84;60.39
78170;BME280;67412;49.892;14.490;2023-06-04T05:48:25;97539.38;;;12.88;58.99
78170;BME280;67412;49.892;14.490;2023-06-04T05:50:50;97544.53;;;12.86;60.14
78170;BME280;67412;49.892;14.490;2023-06-04T05:53:15;97543.59;;;12.90;58.57
78170;BME280;67412;49.892;14.490;2023-06-04T05:55:41;97547.66;;;13.02;60.04
78170;BME280;67412;49.892;14.490;2023-06-04T05:58:06;97550.16;;;13.08;58.38
78170;BME280;67412;49.892;14.490;2023-06-04T06:00:32;97552.63;;;13.14;55.82
78170;BME280;67412;49.892;14.490;2023-06-04T06:02:57;97560.03;;;13.29;56.93
78170;BME280;67412;49.892;14.490;2023-06-04T06:05:22;97550.34;;;13.40;56.33
78170;BME280;67412;49.892;14.490;2023-06-04T06:07:48;97550.09;;;13.51;55.88
78170;BME280;67412;49.892;14.490;2023-06-04T06:10:13;97553.34;;;13.61;54.55
78170;BME280;67412;49.892;14.490;2023-06-04T06:12:40;97554.03;;;13.67;54.61
78170;BME280;67412;49.892;14.490;2023-06-04T06:15:08;97554.94;;;13.65;54.02
78170;BME280;67412;49.892;14.490;2023-06-04T06:17:33;97557.16;;;13.81;54.47
78170;BME280;67412;49.892;14.490;2023-06-04T06:19:59;97560.50;;;13.85;55.39
78170;BME280;67412;49.892;14.490;2023-06-04T06:22:25;97558.16;;;13.76;53.78
78170;BME280;67412;49.892;14.490;2023-06-04T06:24:50;97565.72;;;13.83;54.91
78170;BME280;67412;49.892;14.490;2023-06-04T06:27:16;97563.53;;;13.65;54.55
78170;BME280;67412;49.892;14.490;2023-06-04T06:29:42;97566.84;;;13.72;56.24
78170;BME280;67412;49.892;14.490;2023-06-04T06:32:08;97571.03;;;13.77;55.86
78170;BME280;67412;49.892;14.490;2023-06-04T06:34:34;97572.41;;;13.92;54.61
78170;BME280;67412;49.892;14.490;2023-06-04T06:36:59;97564.53;;;13.96;54.99
78170;BME280;67412;49.892;14.490;2023-06-04T06:39:25;97576.59;;;13.96;55.10
78170;BME280;67412;49.892;14.490;2023-06-04T06:41:50;97577.19;;;14.07;56.05
78170;BME280;67412;49.892;14.490;2023-06-04T06:44:15;97575.13;;;14.21;56.38
78170;BME280;67412;49.892;14.490;2023-06-04T06:46:41;97581.69;;;14.36;53.87
78170;BME280;67412;49.892;14.490;2023-06-04T06:49:07;97574.53;;;14.47;54.04
78170;BME280;67412;49.892;14.490;2023-06-04T06:51:33;97581.84;;;14.64;54.16
78170;BME280;67412;49.892;14.490;2023-06-04T06:53:58;97580.84;;;14.69;53.79
78170;BME280;67412;49.892;14.490;2023-06-04T06:56:24;97584.63;;;14.56;52.94
78170;BME280;67412;49.892;14.490;2023-06-04T06:58:50;97585.88;;;14.74;53.87
78170;BME280;67412;49.892;14.490;2023-06-04T07:01:16;97584.59;;;14.90;53.40
78170;BME280;67412;49.892;14.490;2023-06-04T07:03:41;97581.91;;;14.93;54.09
78170;BME280;67412;49.892;14.490;2023-06-04T07:06:07;97590.03;;;14.81;52.75
78170;BME280;67412;49.892;14.490;2023-06-04T07:08:32;97587.91;;;14.95;54.54
78170;BME280;67412;49.892;14.490;2023-06-04T07:10:59;97588.25;;;15.14;53.03
78170;BME280;67412;49.892;14.490;2023-06-04T07:13:24;97590.06;;;15.10;51.41
78170;BME280;67412;49.892;14.490;2023-06-04T07:15:50;97583.56;;;15.26;50.74
78170;BME280;67412;49.892;14.490;2023-06-04T07:18:15;97585.13;;;15.32;51.75
78170;BME280;67412;49.892;14.490;2023-06-04T07:20:41;97590.19;;;15.36;50.82
78170;BME280;67412;49.892;14.490;2023-06-04T07:23:06;97587.31;;;15.45;50.59
78170;BME280;67412;49.892;14.490;2023-06-04T07:25:32;97579.13;;;15.61;50.19
78170;BME280;67412;49.892;14.490;2023-06-04T07:27:58;97591.28;;;15.59;49.97
78170;BME280;67412;49.892;14.490;2023-06-04T07:30:24;97583.28;;;15.66;49.36
78170;BME280;67412;49.892;14.490;2023-06-04T07:32:50;97589.22;;;15.70;49.22
78170;BME280;67412;49.892;14.490;2023-06-04T07:35:16;97586.91;;;15.88;49.66
78170;BME280;67412;49.892;14.490;2023-06-04T07:37:41;97589.38;;;15.93;50.36
78170;BME280;67412;49.892;14.490;2023-06-04T07:40:10;97597.06;;;15.96;46.90
78170;BME280;67412;49.892;14.490;2023-06-04T07:42:36;97596.22;;;16.22;48.34
78170;BME280;67412;49.892;14.490;2023-06-04T07:45:01;97587.94;;;16.37;49.02
78170;BME280;67412;49.892;14.490;2023-06-04T07:47:27;97590.59;;;16.35;46.55
78170;BME280;67412;49.892;14.490;2023-06-04T07:49:52;97590.19;;;16.48;46.56
78170;BME280;67412;49.892;14.490;2023-06-04T07:52:18;97581.88;;;16.64;46.37
78170;BME280;67412;49.892;14.490;2023-06-04T07:54:43;97576.63;;;16.66;45.86
78170;BME280;67412;49.892;14.490;2023-06-04T07:57:08;97582.38;;;16.99;46.97
78170;BME280;67412;49.892;14.490;2023-06-04T07:59:34;97578.06;;;17.22;44.74
78170;BME280;67412;49.892;14.490;2023-06-04T08:01:59;97571.53;;;17.59;44.82
78170;BME280;67412;49.892;14.490;2023-06-04T08:04:25;97575.06;;;17.56;43.41
78170;BME280;67412;49.892;14.490;2023-06-04T08:06:51;97579.97;;;17.65;42.61
78170;BME280;67412;49.892;14.490;2023-06-04T08:09:18;97578.66;;;17.77;42.75
78170;BME280;67412;49.892;14.490;2023-06-04T08:11:43;97583.94;;;17.74;42.45
78170;BME280;67412;49.892;14.490;2023-06-04T08:14:10;97579.75;;;17.70;42.38
78170;BME280;67412;49.892;14.490;2023-06-04T08:16:36;97573.34;;;17.57;43.07
78170;BME280;67412;49.892;14.490;2023-06-04T08:19:01;97578.44;;;17.81;41.13
78170;BME280;67412;49.892;14.490;2023-06-04T08:21:27;97583.31;;;17.91;42.25
78170;BME280;67412;49.892;14.490;2023-06-04T08:23:53;97571.81;;;17.96;43.22
78170;BME280;67412;49.892;14.490;2023-06-04T08:26:19;97570.38;;;17.66;41.35
78170;BME280;67412;49.892;14.490;2023-06-04T08:28:47;97577.41;;;17.64;40.72
78170;BME280;67412;49.892;14.490;2023-06-04T08:31:13;97587.56;;;17.70;38.71
78170;BME280;67412;49.892;14.490;2023-06-04T08:33:38;97572.41;;;17.81;39.06
78170;BME280;67412;49.892;14.490;2023-06-04T08:36:04;97566.56;;;17.98;37.77
78170;BME280;67412;49.892;14.490;2023-06-04T08:38:30;97573.28;;;18.03;37.64
78170;BME280;67412;49.892;14.490;2023-06-04T08:40:59;97576.66;;;18.05;35.35
78170;BME280;67412;49.892;14.490;2023-06-04T08:43:29;97582.72;;;17.84;38.44
78170;BME280;67412;49.892;14.490;2023-06-04T08:45:58;97577.41;;;18.07;38.88
78170;BME280;67412;49.892;14.490;2023-06-04T08:48:26;97574.94;;;18.04;38.14
78170;BME280;67412;49.892;14.490;2023-06-04T08:50:53;97576.66;;;18.05;37.02
78170;BME280;67412;49.892;14.490;2023-06-04T08:53:21;97574.22;;;18.22;38.66
78170;BME280;67412;49.892;14.490;2023-06-04T08:55:49;97581.28;;;18.19;37.03
78170;BME280;67412;49.892;14.490;2023-06-04T08:58:15;97579.22;;;18.27;36.32
78170;BME280;67412;49.892;14.490;2023-06-04T09:00:41;97586.09;;;18.50;37.76
78170;BME280;67412;49.892;14.490;2023-06-04T09:03:07;97580.16;;;18.68;36.59
78170;BME280;67412;49.892;14.490;2023-06-04T09:05:33;97577.34;;;18.72;36.02
78170;BME280;67412;49.892;14.490;2023-06-04T09:08:00;97580.69;;;18.76;38.83
78170;BME280;67412;49.892;14.490;2023-06-04T09:10:26;97583.75;;;18.44;36.80
78170;BME280;67412;49.892;14.490;2023-06-04T09:12:56;97576.84;;;18.43;35.84
78170;BME280;67412;49.892;14.490;2023-06-04T09:15:22;97584.25;;;18.53;35.88
78170;BME280;67412;49.892;14.490;2023-06-04T09:17:47;97587.25;;;18.43;35.81
78170;BME280;67412;49.892;14.490;2023-06-04T09:20:20;97589.28;;;18.36;35.35
78170;BME280;67412;49.892;14.490;2023-06-04T09:22:46;97593.47;;;18.60;36.44
78170;BME280;67412;49.892;14.490;2023-06-04T09:25:26;97591.13;;;19.15;36.67
78170;BME280;67412;49.892;14.490;2023-06-04T09:27:52;97592.47;;;19.23;35.96
78170;BME280;67412;49.892;14.490;2023-06-04T09:30:18;97587.06;;;18.69;33.24
78170;BME280;67412;49.892;14.490;2023-06-04T09:32:44;97576.44;;;18.94;35.54
78170;BME280;67412;49.892;14.490;2023-06-04T09:35:17;97591.94;;;18.97;35.13
78170;BME280;67412;49.892;14.490;2023-06-04T09:37:55;97597.88;;;19.00;34.66
78170;BME280;67412;49.892;14.490;2023-06-04T09:40:21;97593.31;;;18.85;33.63
78170;BME280;67412;49.892;14.490;2023-06-04T09:42:48;97587.97;;;18.88;32.44
78170;BME280;67412;49.892;14.490;2023-06-04T09:45:30;97585.81;;;18.98;33.82
78170;BME280;67412;49.892;14.490;2023-06-04T09:47:57;97593.22;;;19.07;33.88
78170;BME280;67412;49.892;14.490;2023-06-04T09:50:26;97588.53;;;18.95;33.42
78170;BME280;67412;49.892;14.490;2023-06-04T09:52:53;97577.19;;;19.16;33.30
78170;BME280;67412;49.892;14.490;2023-06-04T09:55:18;97584.78;;;19.20;33.40
78170;BME280;67412;49.892;14.490;2023-06-04T09:57:52;97596.81;;;18.84;31.31
78170;BME280;67412;49.892;14.490;2023-06-04T10:00:22;97589.41;;;19.34;32.67
78170;BME280;67412;49.892;14.490;2023-06-04T10:02:48;97587.44;;;19.39;31.04
78170;BME280;67412;49.892;14.490;2023-06-04T10:05:15;97584.13;;;20.10;32.31
78170;BME280;67412;49.892;14.490;2023-06-04T10:07:45;97589.50;;;20.07;31.64
78170;BME280;67412;49.892;14.490;2023-06-04T10:10:14;97578.03;;;19.74;31.26
78170;BME280;67412;49.892;14.490;2023-06-04T10:12:41;97584.16;;;19.73;32.71
78170;BME280;67412;49.892;14.490;2023-06-04T10:15:11;97579.66;;;19.76;31.81
78170;BME280;67412;49.892;14.490;2023-06-04T10:17:38;97573.19;;;19.66;33.19
78170;BME280;67412;49.892;14.490;2023-06-04T10:20:03;97581.06;;;19.65;31.70
78170;BME280;67412;49.892;14.490;2023-06-04T10:22:31;97585.91;;;19.54;31.86
78170;BME280;67412;49.892;14.490;2023-06-04T10:24:58;97579.09;;;19.31;30.97
78170;BME280;67412;49.892;14.490;2023-06-04T10:27:23;97578.28;;;19.30;31.62
78170;BME280;67412;49.892;14.490;2023-06-04T10:29:49;97577.84;;;19.40;30.62
78170;BME280;67412;49.892;14.490;2023-06-04T10:32:16;97579.09;;;19.70;31.54
78170;BME280;67412;49.892;14.490;2023-06-04T10:34:42;97590.31;;;19.91;30.76
78170;BME280;67412;49.892;14.490;2023-06-04T10:37:21;97572.28;;;19.49;29.87
78170;BME280;67412;49.892;14.490;2023-06-04T10:39:54;97581.22;;;19.62;31.31
78170;BME280;67412;49.892;14.490;2023-06-04T10:42:20;97581.06;;;19.65;30.57
78170;BME280;67412;49.892;14.490;2023-06-04T10:44:51;97583.50;;;20.05;31.29
78170;BME280;67412;49.892;14.490;2023-06-04T10:47:24;97581.69;;;19.89;30.55
78170;BME280;67412;49.892;14.490;2023-06-04T10:49:54;97571.91;;;20.81;30.19
78170;BME280;67412;49.892;14.490;2023-06-04T10:52:21;97578.56;;;20.54;30.16
78170;BME280;67412;49.892;14.490;2023-06-04T10:54:47;97579.16;;;20.76;31.18
78170;BME280;67412;49.892;14.490;2023-06-04T10:57:18;97583.03;;;20.85;29.85
78170;BME280;67412;49.892;14.490;2023-06-04T10:59:58;97577.47;;;20.75;28.61
78170;BME280;67412;49.892;14.490;2023-06-04T11:02:24;97573.16;;;20.74;29.15
78170;BME280;67412;49.892;14.490;2023-06-04T11:05:03;97584.81;;;20.33;29.95
78170;BME280;67412;49.892;14.490;2023-06-04T11:07:43;97586.19;;;20.40;28.95
78170;BME280;67412;49.892;14.490;2023-06-04T11:10:11;97584.81;;;20.14;28.35
78170;BME280;67412;49.892;14.490;2023-06-04T11:12:46;97580.84;;;20.43;29.79
78170;BME280;67412;49.892;14.490;2023-06-04T11:15:12;97578.78;;;20.49;28.27
78170;BME280;67412;49.892;14.490;2023-06-04T11:17:38;97580.28;;;20.70;27.36
78170;BME280;67412;49.892;14.490;2023-06-04T11:20:03;97587.53;;;20.83;30.12
78170;BME280;67412;49.892;14.490;2023-06-04T11:22:32;97574.66;;;21.45;31.25
78170;BME280;67412;49.892;14.490;2023-06-04T11:24:58;97578.66;;;21.84;29.98
78170;BME280;67412;49.892;14.490;2023-06-04T11:27:28;97579.59;;;21.51;27.91
78170;BME280;67412;49.892;14.490;2023-06-04T11:29:58;97576.16;;;21.18;28.25
78170;BME280;67412;49.892;14.490;2023-06-04T11:32:24;97577.31;;;21.61;29.20
78170;BME280;67412;49.892;14.490;2023-06-04T11:34:49;97563.75;;;21.22;27.79
78170;BME280;67412;49.892;14.490;2023-06-04T11:37:15;97571.59;;;21.04;27.14
78170;BME280;67412;49.892;14.490;2023-06-04T11:39:40;97563.94;;;21.34;26.95
78170;BME280;67412;49.892;14.490;2023-06-04T11:42:08;97562.53;;;21.60;26.46
78170;BME280;67412;49.892;14.490;2023-06-04T11:44:33;97560.97;;;21.89;26.73
78170;BME280;67412;49.892;14.490;2023-06-04T11:46:59;97565.94;;;21.78;27.44
78170;BME280;67412;49.892;14.490;2023-06-04T11:49:24;97567.00;;;21.58;30.11
78170;BME280;67412;49.892;14.490;2023-06-04T11:51:52;97569.81;;;21.05;28.30
78170;BME280;67412;49.892;14.490;2023-06-04T11:54:19;97558.44;;;21.23;27.59
78170;BME280;67412;49.892;14.490;2023-06-04T11:56:46;97557.56;;;21.40;26.54
78170;BME280;67412;49.892;14.490;2023-06-04T11:59:14;97560.72;;;21.93;29.72
78170;BME280;67412;49.892;14.490;2023-06-04T12:01:40;97560.72;;;21.78;28.47
78170;BME280;67412;49.892;14.490;2023-06-04T12:04:16;97554.38;;;21.97;28.16
78170;BME280;67412;49.892;14.490;2023-06-04T12:06:58;97563.56;;;21.73;25.71
78170;BME280;67412;49.892;14.490;2023-06-04T12:09:25;97560.59;;;21.63;25.01
78170;BME280;67412;49.892;14.490;2023-06-04T12:12:06;97556.50;;;21.59;24.88
78170;BME280;67412;49.892;14.490;2023-06-04T12:14:32;97550.91;;;21.81;24.73
78170;BME280;67412;49.892;14.490;2023-06-04T12:17:00;97540.19;;;22.01;24.58
78170;BME280;67412;49.892;14.490;2023-06-04T12:19:27;97552.13;;;21.91;24.52
78170;BME280;67412;49.892;14.490;2023-06-04T12:22:02;97550.75;;;21.68;24.97
78170;BME280;67412;49.892;14.490;2023-06-04T12:24:28;97553.09;;;21.73;24.25
78170;BME280;67412;49.892;14.490;2023-06-04T12:27:08;97554.53;;;21.79;23.74
78170;BME280;67412;49.892;14.490;2023-06-04T12:29:34;97551.09;;;21.78;25.46
78170;BME280;67412;49.892;14.490;2023-06-04T12:32:07;97542.59;;;22.36;27.00
78170;BME280;67412;49.892;14.490;2023-06-04T12:34:34;97549.31;;;22.99;24.61
78170;BME280;67412;49.892;14.490;2023-06-04T12:37:00;97544.28;;;23.53;25.47
78170;BME280;67412;49.892;14.490;2023-06-04T12:39:25;97546.66;;;23.84;25.93
78170;BME280;67412;49.892;14.490;2023-06-04T12:41:51;97537.53;;;23.35;22.90
78170;BME280;67412;49.892;14.490;2023-06-04T12:44:16;97536.28;;;23.40;25.38
78170;BME280;67412;49.892;14.490;2023-06-04T12:46:42;97537.59;;;22.61;22.90
78170;BME280;67412;49.892;14.490;2023-06-04T12:49:07;97535.50;;;22.38;23.07
78170;BME280;67412;49.892;14.490;2023-06-04T12:51:33;97542.28;;;22.26;24.01
78170;BME280;67412;49.892;14.490;2023-06-04T12:53:58;97542.03;;;22.31;23.14
78170;BME280;67412;49.892;14.490;2023-06-04T12:56:24;97538.28;;;22.94;25.12
78170;BME280;67412;49.892;14.490;2023-06-04T12:58:50;97539.00;;;23.25;24.65